Time;durP1;ratioP1;P1;durP2;ratioP2;P2;SDS_P1;SDS_P2;PMS_P1;PMS_P2;Temp;Humidity;BMP_temperature;BMP_pressure;BME280_temperature;BME280_humidity;BME280_pressure;Samples;Min_cycle;Max_cycle;Signal;HPM_P1;HPM_P2
2024/04/17 00:00:21;;;;;;;;;;;;;;;;;;2073858;26;7123;-66
2024/04/17 00:01:19;;;;;;;;;;;;;;;;;;2073898;26;8048;-65
2024/04/17 00:02:16;;;;;;;;;;;;;;;;;;2074891;26;8425;-66
2024/04/17 00:03:14;;;;;;;;;;;;;;;;;;2074064;26;8078;-66
2024/04/17 00:04:12;;;;;;;;;;;;;;;;;;2074193;26;8405;-66
2024/04/17 00:05:09;;;;;;;;;;;;;;;;;;2073789;26;8251;-65
2024/04/17 00:06:08;;;;;;;;;;;;;;;;;;2073940;26;7003;-66
2024/04/17 00:07:06;;;;;;;;;;;;;;;;;;2073295;26;7073;-65
2024/04/17 00:08:04;;;;;;;;;;;;;;;;;;2073403;26;8076;-65
2024/04/17 00:09:02;;;;;;;;;;;;;;;;;;2074408;26;8111;-66
2024/04/17 00:09:59;;;;;;;;;;;;;;;;;;2074922;26;7011;-66
2024/04/17 00:10:56;;;;;;;;;;;;;;;;;;2072445;26;7140;-65
2024/04/17 00:11:54;;;;;;;;;;;;;;;;;;2074548;26;7133;-66
2024/04/17 00:12:51;;;;;;;;;;;;;;;;;;2073708;26;8238;-66
2024/04/17 00:13:49;;;;;;;;;;;;;;;;;;2073526;26;8149;-66
2024/04/17 00:14:47;;;;;;;;;;;;;;;;;;2072894;26;8064;-66
2024/04/17 00:15:44;;;;;;;;;;;;;;;;;;2073694;26;7064;-66
2024/04/17 00:16:42;;;;;;;;;;;;;;;;;;2074226;26;8060;-66
2024/04/17 00:17:39;;;;;;;;;;;;;;;;;;2072708;26;7141;-65
2024/04/17 00:18:37;;;;;;;;;;;;;;;;;;2073945;26;8137;-65
2024/04/17 00:19:34;;;;;;;;;;;;;;;;;;2073561;26;7065;-66
2024/04/17 00:20:32;;;;;;;;;;;;;;;;;;2073545;26;8071;-66
2024/04/17 00:21:29;;;;;;;;;;;;;;;;;;2073535;26;8087;-65
2024/04/17 00:22:27;;;;;;;;;;;;;;;;;;2046908;26;7138;-65
2024/04/17 00:23:25;;;;;;;;;;;;;;;;;;2046056;26;7246;-66
2024/04/17 00:24:22;;;;;;;;;;;;;;;;;;2046916;26;7114;-65
2024/04/17 00:25:20;;;;;;;;;;;;;;;;;;2046477;26;8076;-65
2024/04/17 00:26:17;;;;;;;;;;;;;;;;;;2046752;26;8052;-65
2024/04/17 00:27:15;;;;;;;;;;;;;;;;;;2046869;26;7012;-66
2024/04/17 00:28:12;;;;;;;;;;;;;;;;;;2047045;26;8115;-65
2024/04/17 00:29:10;;;;;;;;;;;;;;;;;;2046912;26;8223;-66
2024/04/17 00:30:07;;;;;;;;;;;;;;;;;;2047630;26;7295;-66
2024/04/17 00:31:06;;;;;;;;;;;;;;;;;;2046710;26;7004;-65
2024/04/17 00:32:05;;;;;;;;;;;;;;;;;;2046625;26;7119;-65
2024/04/17 00:33:02;;;;;;;;;;;;;;;;;;2044114;26;8065;-66
2024/04/17 00:34:00;;;;;;;;;;;;;;;;;;2046077;26;7151;-65
2024/04/17 00:34:57;;;;;;;;;;;;;;;;;;2046769;26;7144;-65
2024/04/17 00:35:55;;;;;;;;;;;;;;;;;;2046453;26;7406;-65
2024/04/17 00:36:52;;;;;;;;;;;;;;;;;;2047464;26;8085;-66
2024/04/17 00:37:50;;;;;;;;;;;;;;;;;;2047294;26;7012;-66
2024/04/17 00:38:47;;;;;;;;;;;;;;;;;;2045879;26;8083;-66
2024/04/17 00:39:45;;;;;;;;;;;;;;;;;;2046988;26;8197;-65
2024/04/17 00:40:42;;;;;;;;;;;;;;;;;;2047119;26;8075;-65
2024/04/17 00:41:40;;;;;;;;;;;;;;;;;;2047110;26;7198;-66
2024/04/17 00:42:38;;;;;;;;;;;;;;;;;;2046559;26;8021;-66
2024/04/17 00:43:35;;;;;;;;;;;;;;;;;;2047569;26;8112;-66
2024/04/17 00:44:33;;;;;;;;;;;;;;;;;;2045063;26;7000;-66
2024/04/17 00:45:33;;;;;;;;;;;;;;;;;;2046787;26;7063;-65
2024/04/17 00:46:30;;;;;;;;;;;;;;;;;;2046928;26;8071;-65
2024/04/17 00:47:28;;;;;;;;;;;;;;;;;;2046292;26;8227;-65
2024/04/17 00:48:26;;;;;;;;;;;;;;;;;;2046516;26;7124;-66
2024/04/17 00:49:24;;;;;;;;;;;;;;;;;;2046984;26;8079;-66
2024/04/17 00:50:22;;;;;;;;;;;;;;;;;;2046599;26;7012;-65
2024/04/17 00:51:19;;;;;;;;;;;;;;;;;;2047517;26;7128;-66
2024/04/17 00:52:19;;;;;;;;;;;;;;;;;;2046754;26;7408;-65
2024/04/17 00:53:18;;;;;;;;;;;;;;;;;;2046229;26;7312;-66
2024/04/17 00:54:16;;;;;;;;;;;;;;;;;;2045735;26;8062;-65
2024/04/17 00:55:14;;;;;;;;;;;;;;;;;;2046037;26;7004;-66
2024/04/17 00:56:12;;;;;;;;;;;;;;;;;;2047275;26;8144;-66
2024/04/17 00:57:09;;;;;;;;;;;;;;;;;;2046244;26;8095;-65
2024/04/17 00:58:08;;;;;;;;;;;;;;;;;;2048266;26;8048;-66
2024/04/17 00:59:06;;;;;;;;;;;;;;;;;;2047601;26;9000;-65
2024/04/17 01:00:04;;;;;;;;;;;;;;;;;;2045785;26;7090;-64
2024/04/17 01:01:01;;;;;;;;;;;;;;;;;;2045844;26;8126;-65
2024/04/17 01:01:59;;;;;;;;;;;;;;;;;;2046111;26;7243;-65
2024/04/17 01:02:57;;;;;;;;;;;;;;;;;;2046406;26;7004;-65
2024/04/17 01:03:55;;;;;;;;;;;;;;;;;;2046697;26;8488;-65
2024/04/17 01:04:53;;;;;;;;;;;;;;;;;;2046209;26;8183;-65
2024/04/17 01:05:50;;;;;;;;;;;;;;;;;;2047759;26;7363;-65
2024/04/17 01:06:48;;;;;;;;;;;;;;;;;;2046499;26;8104;-65
2024/04/17 01:07:45;;;;;;;;;;;;;;;;;;2046310;26;8176;-65
2024/04/17 01:08:43;;;;;;;;;;;;;;;;;;2044088;26;8252;-65
2024/04/17 01:09:40;;;;;;;;;;;;;;;;;;2046721;26;8063;-65
2024/04/17 01:10:38;;;;;;;;;;;;;;;;;;2046269;26;7003;-65
2024/04/17 01:11:42;;;;;;;;;;;;;;;;;;2046298;26;8066;-65
2024/04/17 01:12:39;;;;;;;;;;;;;;;;;;2044599;26;8136;-65
2024/04/17 01:13:37;;;;;;;;;;;;;;;;;;2048277;26;7194;-65
2024/04/17 01:14:34;;;;;;;;;;;;;;;;;;2046958;26;7003;-65
2024/04/17 01:15:32;;;;;;;;;;;;;;;;;;2046263;26;8237;-65
2024/04/17 01:16:29;;;;;;;;;;;;;;;;;;2046713;26;8122;-65
2024/04/17 01:17:27;;;;;;;;;;;;;;;;;;2046085;26;7010;-65
2024/04/17 01:18:25;;;;;;;;;;;;;;;;;;2044128;26;7062;-65
2024/04/17 01:19:23;;;;;;;;;;;;;;;;;;2047293;26;7454;-65
2024/04/17 01:20:21;;;;;;;;;;;;;;;;;;2047623;26;7439;-65
2024/04/17 01:21:18;;;;;;;;;;;;;;;;;;2046360;26;7371;-65
2024/04/17 01:22:16;;;;;;;;;;;;;;;;;;2068410;26;8082;-65
2024/04/17 01:23:13;;;;;;;;;;;;;;;;;;2074380;26;8107;-65
2024/04/17 01:24:11;;;;;;;;;;;;;;;;;;2070945;26;8134;-65
2024/04/17 01:25:08;;;;;;;;;;;;;;;;;;2072039;26;8145;-65
2024/04/17 01:26:06;;;;;;;;;;;;;;;;;;2072348;26;7119;-65
2024/04/17 01:27:03;;;;;;;;;;;;;;;;;;2074956;26;7003;-65
2024/04/17 01:28:01;;;;;;;;;;;;;;;;;;2073883;26;7012;-65
2024/04/17 01:28:58;;;;;;;;;;;;;;;;;;2072953;26;7351;-65
2024/04/17 01:29:56;;;;;;;;;;;;;;;;;;2073517;26;7062;-65
2024/04/17 01:30:53;;;;;;;;;;;;;;;;;;2071200;26;7122;-65
2024/04/17 01:31:51;;;;;;;;;;;;;;;;;;2073740;26;7499;-65
2024/04/17 01:32:48;;;;;;;;;;;;;;;;;;2073488;26;7343;-65
2024/04/17 01:33:46;;;;;;;;;;;;;;;;;;2074739;26;7130;-65
2024/04/17 01:34:43;;;;;;;;;;;;;;;;;;2073492;26;7338;-65
2024/04/17 01:35:41;;;;;;;;;;;;;;;;;;2073622;26;7040;-65
2024/04/17 01:36:38;;;;;;;;;;;;;;;;;;2073705;26;7066;-65
2024/04/17 01:37:36;;;;;;;;;;;;;;;;;;2074388;26;8149;-65
2024/04/17 01:38:33;;;;;;;;;;;;;;;;;;2071332;26;8066;-65
2024/04/17 01:39:31;;;;;;;;;;;;;;;;;;2073460;26;8085;-65
2024/04/17 01:40:28;;;;;;;;;;;;;;;;;;2073845;26;8241;-65
2024/04/17 01:41:26;;;;;;;;;;;;;;;;;;2073188;26;8236;-65
2024/04/17 01:42:23;;;;;;;;;;;;;;;;;;2073441;26;7119;-65
2024/04/17 01:43:21;;;;;;;;;;;;;;;;;;2073304;26;7012;-65
2024/04/17 01:44:18;;;;;;;;;;;;;;;;;;2072345;26;8452;-65
2024/04/17 01:45:26;;;;;;;;;;;;;;;;;;2073236;26;8190;-65
2024/04/17 01:46:23;;;;;;;;;;;;;;;;;;2073276;26;8052;-65
2024/04/17 01:47:21;;;;;;;;;;;;;;;;;;2073257;26;7116;-66
2024/04/17 01:48:19;;;;;;;;;;;;;;;;;;2073975;26;8054;-65
2024/04/17 01:49:16;;;;;;;;;;;;;;;;;;2073090;26;9038;-65
2024/04/17 01:50:14;;;;;;;;;;;;;;;;;;2074011;26;7004;-65
2024/04/17 01:51:11;;;;;;;;;;;;;;;;;;2072534;26;7572;-65
2024/04/17 01:52:09;;;;;;;;;;;;;;;;;;2074084;26;8067;-65
2024/04/17 01:53:06;;;;;;;;;;;;;;;;;;2073608;26;7402;-65
2024/04/17 01:54:04;;;;;;;;;;;;;;;;;;2073240;26;8067;-65
2024/04/17 01:55:01;;;;;;;;;;;;;;;;;;2074852;26;7193;-65
2024/04/17 01:55:58;;;;;;;;;;;;;;;;;;2073275;26;7003;-65
2024/04/17 01:56:56;;;;;;;;;;;;;;;;;;2073437;26;8146;-65
2024/04/17 01:57:54;;;;;;;;;;;;;;;;;;2073818;26;7133;-65
2024/04/17 01:58:52;;;;;;;;;;;;;;;;;;2073375;26;8271;-65
2024/04/17 01:59:50;;;;;;;;;;;;;;;;;;2073660;26;7003;-65
2024/04/17 02:00:47;;;;;;;;;;;;;;;;;;2073569;26;8061;-65
2024/04/17 02:01:45;;;;;;;;;;;;;;;;;;2074060;26;7004;-65
2024/04/17 02:02:43;;;;;;;;;;;;;;;;;;2073391;26;7007;-65
2024/04/17 02:03:40;;;;;;;;;;;;;;;;;;2070766;26;8237;-65
2024/04/17 02:04:38;;;;;;;;;;;;;;;;;;2072564;26;7138;-65
2024/04/17 02:05:36;;;;;;;;;;;;;;;;;;2073096;26;8063;-65
2024/04/17 02:06:33;;;;;;;;;;;;;;;;;;2073817;26;9610;-65
2024/04/17 02:07:30;;;;;;;;;;;;;;;;;;2072214;26;7079;-65
2024/04/17 02:08:28;;;;;;;;;;;;;;;;;;2073973;26;8065;-66
2024/04/17 02:09:25;;;;;;;;;;;;;;;;;;2074056;26;8083;-65
2024/04/17 02:10:23;;;;;;;;;;;;;;;;;;2072023;26;7305;-66
2024/04/17 02:11:20;;;;;;;;;;;;;;;;;;2073645;26;8114;-64
2024/04/17 02:12:18;;;;;;;;;;;;;;;;;;2074788;26;8228;-65
2024/04/17 02:13:15;;;;;;;;;;;;;;;;;;2075129;26;7149;-65
2024/04/17 02:14:13;;;;;;;;;;;;;;;;;;2075073;26;7061;-65
2024/04/17 02:15:10;;;;;;;;;;;;;;;;;;2075424;26;9059;-65
2024/04/17 02:16:08;;;;;;;;;;;;;;;;;;2074290;26;7205;-65
2024/04/17 02:17:09;;;;;;;;;;;;;;;;;;2074346;26;7959;-65
2024/04/17 02:18:07;;;;;;;;;;;;;;;;;;2075181;26;7123;-65
2024/04/17 02:19:05;;;;;;;;;;;;;;;;;;2075105;26;7114;-65
2024/04/17 02:20:09;;;;;;;;;;;;;;;;;;2072199;26;8087;-65
2024/04/17 02:21:07;;;;;;;;;;;;;;;;;;2074410;26;7154;-65
2024/04/17 02:22:04;;;;;;;;;;;;;;;;;;2075649;26;6999;-65
2024/04/17 02:23:02;;;;;;;;;;;;;;;;;;2072162;26;8070;-65
2024/04/17 02:23:59;;;;;;;;;;;;;;;;;;2074042;26;7135;-65
2024/04/17 02:24:57;;;;;;;;;;;;;;;;;;2074241;26;7003;-65
2024/04/17 02:25:57;;;;;;;;;;;;;;;;;;2073887;26;8079;-65
2024/04/17 02:26:54;;;;;;;;;;;;;;;;;;2075383;26;7003;-65
2024/04/17 02:27:52;;;;;;;;;;;;;;;;;;2074891;26;7104;-65
2024/04/17 02:28:49;;;;;;;;;;;;;;;;;;2074256;26;8074;-65
2024/04/17 02:29:47;;;;;;;;;;;;;;;;;;2074877;26;8261;-65
2024/04/17 02:30:45;;;;;;;;;;;;;;;;;;2073034;26;7163;-65
2024/04/17 02:31:42;;;;;;;;;;;;;;;;;;2074195;26;7011;-65
2024/04/17 02:32:40;;;;;;;;;;;;;;;;;;2073586;26;8368;-65
2024/04/17 02:33:37;;;;;;;;;;;;;;;;;;2074105;26;8177;-65
2024/04/17 02:34:35;;;;;;;;;;;;;;;;;;2074397;26;7061;-65
2024/04/17 02:35:33;;;;;;;;;;;;;;;;;;2075219;26;8176;-65
2024/04/17 02:36:30;;;;;;;;;;;;;;;;;;2074344;26;7066;-65
2024/04/17 02:37:28;;;;;;;;;;;;;;;;;;2074410;26;7133;-65
2024/04/17 02:38:25;;;;;;;;;;;;;;;;;;2074378;26;7066;-65
2024/04/17 02:39:23;;;;;;;;;;;;;;;;;;2074560;26;7003;-66
2024/04/17 02:40:20;;;;;;;;;;;;;;;;;;2073729;26;7101;-65
2024/04/17 02:41:18;;;;;;;;;;;;;;;;;;2073608;26;7131;-65
2024/04/17 02:42:15;;;;;;;;;;;;;;;;;;2074763;26;8078;-65
2024/04/17 02:43:13;;;;;;;;;;;;;;;;;;2074466;26;7072;-65
2024/04/17 02:44:11;;;;;;;;;;;;;;;;;;2075010;26;8230;-65
2024/04/17 02:45:08;;;;;;;;;;;;;;;;;;2075001;26;8425;-65
2024/04/17 02:46:06;;;;;;;;;;;;;;;;;;2074324;26;7342;-65
2024/04/17 02:47:03;;;;;;;;;;;;;;;;;;2074212;26;7217;-65
2024/04/17 02:48:01;;;;;;;;;;;;;;;;;;2074805;26;7127;-65
2024/04/17 02:48:59;;;;;;;;;;;;;;;;;;2074026;26;7191;-65
2024/04/17 02:49:56;;;;;;;;;;;;;;;;;;2073132;26;8020;-65
2024/04/17 02:50:54;;;;;;;;;;;;;;;;;;2075277;26;7004;-65
2024/04/17 02:51:51;;;;;;;;;;;;;;;;;;2075196;26;7171;-65
2024/04/17 02:52:49;;;;;;;;;;;;;;;;;;2073702;26;8102;-65
2024/04/17 02:53:47;;;;;;;;;;;;;;;;;;2074781;26;8171;-65
2024/04/17 02:54:44;;;;;;;;;;;;;;;;;;2074333;26;8095;-65
2024/04/17 02:55:42;;;;;;;;;;;;;;;;;;2074486;26;7192;-66
2024/04/17 02:56:39;;;;;;;;;;;;;;;;;;2074192;26;8102;-65
2024/04/17 02:57:37;;;;;;;;;;;;;;;;;;2074599;26;8063;-65
2024/04/17 02:58:36;;;;;;;;;;;;;;;;;;2074700;26;9151;-65
2024/04/17 02:59:33;;;;;;;;;;;;;;;;;;2074575;26;7056;-65
2024/04/17 03:00:31;;;;;;;;;;;;;;;;;;2074070;26;8073;-65
2024/04/17 03:01:28;;;;;;;;;;;;;;;;;;2073499;26;7449;-65
2024/04/17 03:02:26;;;;;;;;;;;;;;;;;;2074164;26;9046;-65
2024/04/17 03:03:23;;;;;;;;;;;;;;;;;;2074087;26;7109;-65
2024/04/17 03:04:21;;;;;;;;;;;;;;;;;;2075107;26;7152;-65
2024/04/17 03:05:18;;;;;;;;;;;;;;;;;;2073938;26;7026;-65
2024/04/17 03:06:16;;;;;;;;;;;;;;;;;;2073846;26;7172;-65
2024/04/17 03:07:13;;;;;;;;;;;;;;;;;;2085881;26;7127;-65
2024/04/17 03:08:10;;;;;;;;;;;;;;;;;;2086843;26;8140;-65
2024/04/17 03:09:08;;;;;;;;;;;;;;;;;;2076303;26;7262;-65
2024/04/17 03:10:09;;;;;;;;;;;;;;;;;;2071727;26;8069;-65
2024/04/17 03:11:06;;;;;;;;;;;;;;;;;;2074148;26;8053;-65
2024/04/17 03:12:04;;;;;;;;;;;;;;;;;;2075636;26;7003;-65
2024/04/17 03:13:02;;;;;;;;;;;;;;;;;;2074044;26;7065;-65
2024/04/17 03:13:59;;;;;;;;;;;;;;;;;;2073882;26;9050;-65
2024/04/17 03:14:57;;;;;;;;;;;;;;;;;;2072701;26;7023;-66
2024/04/17 03:15:54;;;;;;;;;;;;;;;;;;2071653;26;7139;-65
2024/04/17 03:16:52;;;;;;;;;;;;;;;;;;2072752;26;8223;-65
2024/04/17 03:17:50;;;;;;;;;;;;;;;;;;2075130;26;7117;-65
2024/04/17 03:18:47;;;;;;;;;;;;;;;;;;2074631;26;7004;-65
2024/04/17 03:19:46;;;;;;;;;;;;;;;;;;2074531;26;7271;-65
2024/04/17 03:20:43;;;;;;;;;;;;;;;;;;2074882;26;8100;-65
2024/04/17 03:21:41;;;;;;;;;;;;;;;;;;2074073;26;7003;-65
2024/04/17 03:22:38;;;;;;;;;;;;;;;;;;2072904;26;7131;-65
2024/04/17 03:23:36;;;;;;;;;;;;;;;;;;2073276;26;8055;-65
2024/04/17 03:24:33;;;;;;;;;;;;;;;;;;2074784;26;6999;-65
2024/04/17 03:25:31;;;;;;;;;;;;;;;;;;2074815;26;8143;-66
2024/04/17 03:26:28;;;;;;;;;;;;;;;;;;2073998;26;7140;-65
2024/04/17 03:27:26;;;;;;;;;;;;;;;;;;2071339;26;7004;-65
2024/04/17 03:28:23;;;;;;;;;;;;;;;;;;2074333;26;8061;-65
2024/04/17 03:29:21;;;;;;;;;;;;;;;;;;2074741;26;7073;-65
2024/04/17 03:30:18;;;;;;;;;;;;;;;;;;2074315;26;8141;-65
2024/04/17 03:31:16;;;;;;;;;;;;;;;;;;2070855;26;7142;-65
2024/04/17 03:32:13;;;;;;;;;;;;;;;;;;2076251;26;8665;-65
2024/04/17 03:33:11;;;;;;;;;;;;;;;;;;2074672;26;7074;-65
2024/04/17 03:34:08;;;;;;;;;;;;;;;;;;2075044;26;7004;-65
2024/04/17 03:35:07;;;;;;;;;;;;;;;;;;2074717;26;7019;-65
2024/04/17 03:36:05;;;;;;;;;;;;;;;;;;2075126;26;8066;-65
2024/04/17 03:37:03;;;;;;;;;;;;;;;;;;2074556;26;8125;-65
2024/04/17 03:38:00;;;;;;;;;;;;;;;;;;2073386;26;7135;-65
2024/04/17 03:38:58;;;;;;;;;;;;;;;;;;2074444;26;8041;-65
2024/04/17 03:39:55;;;;;;;;;;;;;;;;;;2074750;26;7016;-65
2024/04/17 03:40:54;;;;;;;;;;;;;;;;;;2074993;26;7366;-65
2024/04/17 03:41:51;;;;;;;;;;;;;;;;;;2074784;26;7453;-65
2024/04/17 03:42:49;;;;;;;;;;;;;;;;;;2075124;26;8143;-66
2024/04/17 03:43:46;;;;;;;;;;;;;;;;;;2074112;26;7004;-65
2024/04/17 03:44:44;;;;;;;;;;;;;;;;;;2074297;26;7164;-65
2024/04/17 03:45:42;;;;;;;;;;;;;;;;;;2074774;26;7030;-65
2024/04/17 03:46:39;;;;;;;;;;;;;;;;;;2075180;26;8078;-65
2024/04/17 03:47:39;;;;;;;;;;;;;;;;;;2074849;26;8063;-65
2024/04/17 03:48:36;;;;;;;;;;;;;;;;;;2075235;26;7449;-65
2024/04/17 03:49:34;;;;;;;;;;;;;;;;;;2074923;26;7064;-65
2024/04/17 03:50:31;;;;;;;;;;;;;;;;;;2075034;26;7003;-65
2024/04/17 03:51:29;;;;;;;;;;;;;;;;;;2074703;26;7436;-65
2024/04/17 03:52:26;;;;;;;;;;;;;;;;;;2074932;26;7129;-65
2024/04/17 03:53:27;;;;;;;;;;;;;;;;;;2075541;26;8048;-65
2024/04/17 03:54:24;;;;;;;;;;;;;;;;;;2074612;26;7152;-65
2024/04/17 03:55:22;;;;;;;;;;;;;;;;;;2073764;26;7004;-65
2024/04/17 03:56:19;;;;;;;;;;;;;;;;;;2072724;26;8068;-66
2024/04/17 03:57:17;;;;;;;;;;;;;;;;;;2074780;26;7171;-65
2024/04/17 03:58:14;;;;;;;;;;;;;;;;;;2074548;26;7004;-65
2024/04/17 03:59:12;;;;;;;;;;;;;;;;;;2071520;26;8053;-65
2024/04/17 04:00:10;;;;;;;;;;;;;;;;;;2074034;26;8069;-65
2024/04/17 04:01:07;;;;;;;;;;;;;;;;;;2075784;26;7003;-65
2024/04/17 04:02:06;;;;;;;;;;;;;;;;;;2075386;26;8186;-65
2024/04/17 04:03:09;;;;;;;;;;;;;;;;;;2075270;26;8086;-65
2024/04/17 04:04:07;;;;;;;;;;;;;;;;;;2074727;26;7137;-66
2024/04/17 04:05:04;;;;;;;;;;;;;;;;;;2074009;26;8069;-65
2024/04/17 04:06:02;;;;;;;;;;;;;;;;;;2074379;26;8078;-65
2024/04/17 04:07:02;;;;;;;;;;;;;;;;;;2074619;26;7350;-65
2024/04/17 04:08:00;;;;;;;;;;;;;;;;;;2075229;26;8143;-65
2024/04/17 04:08:57;;;;;;;;;;;;;;;;;;2075147;26;9162;-65
2024/04/17 04:09:55;;;;;;;;;;;;;;;;;;2074291;26;7004;-65
2024/04/17 04:10:52;;;;;;;;;;;;;;;;;;2074953;26;8070;-65
2024/04/17 04:11:50;;;;;;;;;;;;;;;;;;2074047;26;8053;-65
2024/04/17 04:12:47;;;;;;;;;;;;;;;;;;2074214;26;7136;-65
2024/04/17 04:13:44;;;;;;;;;;;;;;;;;;2074879;26;8407;-65
2024/04/17 04:14:42;;;;;;;;;;;;;;;;;;2074435;26;8123;-65
2024/04/17 04:15:51;;;;;;;;;;;;;;;;;;2075714;26;8108;-65
2024/04/17 04:16:48;;;;;;;;;;;;;;;;;;2075420;26;8078;-65
2024/04/17 04:17:46;;;;;;;;;;;;;;;;;;2074244;26;7338;-65
2024/04/17 04:18:43;;;;;;;;;;;;;;;;;;2074256;26;7193;-65
2024/04/17 04:19:41;;;;;;;;;;;;;;;;;;2074538;26;8141;-65
2024/04/17 04:20:38;;;;;;;;;;;;;;;;;;2074821;26;8067;-65
2024/04/17 04:21:36;;;;;;;;;;;;;;;;;;2074034;26;8369;-65
2024/04/17 04:22:33;;;;;;;;;;;;;;;;;;2074192;26;7115;-65
2024/04/17 04:23:31;;;;;;;;;;;;;;;;;;2074706;26;7007;-65
2024/04/17 04:24:28;;;;;;;;;;;;;;;;;;2074636;26;7187;-64
2024/04/17 04:25:26;;;;;;;;;;;;;;;;;;2074224;26;7143;-65
2024/04/17 04:26:25;;;;;;;;;;;;;;;;;;2074522;26;8229;-63
2024/04/17 04:27:22;;;;;;;;;;;;;;;;;;2074977;26;8069;-65
2024/04/17 04:28:20;;;;;;;;;;;;;;;;;;2073547;26;10311;-65
2024/04/17 04:29:17;;;;;;;;;;;;;;;;;;2069600;26;7138;-65
2024/04/17 04:30:15;;;;;;;;;;;;;;;;;;2074960;26;8086;-65
2024/04/17 04:31:13;;;;;;;;;;;;;;;;;;2074127;26;7220;-65
2024/04/17 04:32:11;;;;;;;;;;;;;;;;;;2074135;26;8128;-65
2024/04/17 04:33:09;;;;;;;;;;;;;;;;;;2071755;26;8069;-65
2024/04/17 04:34:06;;;;;;;;;;;;;;;;;;2073937;26;8062;-65
2024/04/17 04:35:04;;;;;;;;;;;;;;;;;;2073078;26;7004;-65
2024/04/17 04:36:01;;;;;;;;;;;;;;;;;;2073015;26;8089;-65
2024/04/17 04:36:59;;;;;;;;;;;;;;;;;;2073819;26;7071;-66
2024/04/17 04:37:56;;;;;;;;;;;;;;;;;;2073666;26;7350;-65
2024/04/17 04:38:54;;;;;;;;;;;;;;;;;;2072210;26;8236;-65
2024/04/17 04:39:51;;;;;;;;;;;;;;;;;;2074141;26;7144;-65
2024/04/17 04:40:49;;;;;;;;;;;;;;;;;;2073653;26;7424;-65
2024/04/17 04:41:47;;;;;;;;;;;;;;;;;;2074444;26;7003;-64
2024/04/17 04:42:44;;;;;;;;;;;;;;;;;;2071123;26;7004;-64
2024/04/17 04:43:41;;;;;;;;;;;;;;;;;;2074636;26;7003;-65
2024/04/17 04:44:39;;;;;;;;;;;;;;;;;;2073406;26;7138;-65
2024/04/17 04:45:37;;;;;;;;;;;;;;;;;;2073087;26;7287;-66
2024/04/17 04:46:34;;;;;;;;;;;;;;;;;;2073962;26;8116;-65
2024/04/17 04:47:32;;;;;;;;;;;;;;;;;;2073920;26;8089;-66
2024/04/17 04:48:29;;;;;;;;;;;;;;;;;;2072435;26;7003;-66
2024/04/17 04:49:27;;;;;;;;;;;;;;;;;;2074028;26;7004;-65
2024/04/17 04:50:24;;;;;;;;;;;;;;;;;;2074601;26;7117;-65
2024/04/17 04:51:22;;;;;;;;;;;;;;;;;;2074259;26;7370;-65
2024/04/17 04:52:19;;;;;;;;;;;;;;;;;;2070969;26;7458;-64
2024/04/17 04:53:17;;;;;;;;;;;;;;;;;;2074573;26;8017;-65
2024/04/17 04:54:14;;;;;;;;;;;;;;;;;;2072925;26;8089;-65
2024/04/17 04:55:12;;;;;;;;;;;;;;;;;;2073340;26;7062;-65
2024/04/17 04:56:09;;;;;;;;;;;;;;;;;;2074411;26;7004;-64
2024/04/17 04:57:07;;;;;;;;;;;;;;;;;;2071441;26;7131;-64
2024/04/17 04:58:04;;;;;;;;;;;;;;;;;;2073733;26;7196;-65
2024/04/17 04:59:02;;;;;;;;;;;;;;;;;;2074092;26;7003;-65
2024/04/17 05:00:00;;;;;;;;;;;;;;;;;;2074731;26;8076;-65
2024/04/17 05:00:57;;;;;;;;;;;;;;;;;;2073310;26;8186;-62
2024/04/17 05:01:54;;;;;;;;;;;;;;;;;;2073820;26;8070;-64
2024/04/17 05:02:52;;;;;;;;;;;;;;;;;;2074499;26;7133;-64
2024/04/17 05:03:50;;;;;;;;;;;;;;;;;;2074379;26;7069;-65
2024/04/17 05:04:47;;;;;;;;;;;;;;;;;;2073990;26;6996;-65
2024/04/17 05:05:45;;;;;;;;;;;;;;;;;;2073855;26;8218;-65
2024/04/17 05:06:42;;;;;;;;;;;;;;;;;;2073871;26;8137;-65
2024/04/17 05:07:40;;;;;;;;;;;;;;;;;;2074276;26;7409;-65
2024/04/17 05:08:37;;;;;;;;;;;;;;;;;;2074278;26;7004;-65
2024/04/17 05:09:35;;;;;;;;;;;;;;;;;;2074475;26;8176;-65
2024/04/17 05:10:32;;;;;;;;;;;;;;;;;;2074498;26;9744;-65
2024/04/17 05:11:30;;;;;;;;;;;;;;;;;;2073664;26;8070;-65
2024/04/17 05:12:27;;;;;;;;;;;;;;;;;;2072691;26;7334;-65
2024/04/17 05:13:24;;;;;;;;;;;;;;;;;;2073918;26;7008;-65
2024/04/17 05:14:22;;;;;;;;;;;;;;;;;;2073815;26;7199;-65
2024/04/17 05:15:19;;;;;;;;;;;;;;;;;;2072928;26;8515;-65
2024/04/17 05:16:17;;;;;;;;;;;;;;;;;;2074369;26;8147;-65
2024/04/17 05:17:14;;;;;;;;;;;;;;;;;;2073954;26;7139;-65
2024/04/17 05:18:12;;;;;;;;;;;;;;;;;;2074893;26;7004;-65
2024/04/17 05:19:10;;;;;;;;;;;;;;;;;;2071649;26;8546;-65
2024/04/17 05:20:08;;;;;;;;;;;;;;;;;;2073434;26;7137;-66
2024/04/17 05:21:05;;;;;;;;;;;;;;;;;;2074013;26;7461;-65
2024/04/17 05:22:03;;;;;;;;;;;;;;;;;;2073579;26;8070;-65
2024/04/17 05:23:00;;;;;;;;;;;;;;;;;;2074365;26;8097;-65
2024/04/17 05:23:58;;;;;;;;;;;;;;;;;;2073581;26;7004;-65
2024/04/17 05:24:55;;;;;;;;;;;;;;;;;;2074102;26;8053;-65
2024/04/17 05:25:53;;;;;;;;;;;;;;;;;;2074356;26;8086;-64
2024/04/17 05:26:50;;;;;;;;;;;;;;;;;;2074512;26;7338;-65
2024/04/17 05:27:48;;;;;;;;;;;;;;;;;;2073703;26;8069;-66
2024/04/17 05:28:45;;;;;;;;;;;;;;;;;;2074051;26;8066;-65
2024/04/17 05:29:43;;;;;;;;;;;;;;;;;;2074005;26;8073;-65
2024/04/17 05:30:43;;;;;;;;;;;;;;;;;;2074437;26;10761;-65
2024/04/17 05:31:40;;;;;;;;;;;;;;;;;;2071524;26;8192;-64
2024/04/17 05:32:38;;;;;;;;;;;;;;;;;;2074116;26;7886;-65
2024/04/17 05:33:36;;;;;;;;;;;;;;;;;;2074068;26;8076;-65
2024/04/17 05:34:34;;;;;;;;;;;;;;;;;;2073648;26;7187;-65
2024/04/17 05:35:32;;;;;;;;;;;;;;;;;;2073850;26;8043;-64
2024/04/17 05:36:29;;;;;;;;;;;;;;;;;;2074198;26;8045;-65
2024/04/17 05:37:27;;;;;;;;;;;;;;;;;;2074467;26;7003;-65
2024/04/17 05:38:24;;;;;;;;;;;;;;;;;;2074495;26;8107;-65
2024/04/17 05:39:22;;;;;;;;;;;;;;;;;;2073957;26;7429;-65
2024/04/17 05:40:19;;;;;;;;;;;;;;;;;;2073300;26;7063;-65
2024/04/17 05:41:17;;;;;;;;;;;;;;;;;;2073809;26;8058;-65
2024/04/17 05:42:14;;;;;;;;;;;;;;;;;;2074190;26;7069;-65
2024/04/17 05:43:12;;;;;;;;;;;;;;;;;;2074962;26;8087;-65
2024/04/17 05:44:09;;;;;;;;;;;;;;;;;;2071848;26;8238;-65
2024/04/17 05:45:07;;;;;;;;;;;;;;;;;;2072755;26;8079;-66
2024/04/17 05:46:04;;;;;;;;;;;;;;;;;;2073556;26;8066;-65
2024/04/17 05:47:02;;;;;;;;;;;;;;;;;;2071383;26;7294;-65
2024/04/17 05:48:00;;;;;;;;;;;;;;;;;;2073851;26;7073;-66
2024/04/17 05:48:57;;;;;;;;;;;;;;;;;;2075095;26;7131;-65
2024/04/17 05:49:55;;;;;;;;;;;;;;;;;;2075359;26;7078;-65
2024/04/17 05:50:59;;;;;;;;;;;;;;;;;;2073349;26;7003;-65
2024/04/17 05:51:56;;;;;;;;;;;;;;;;;;2075678;26;7061;-65
2024/04/17 05:52:54;;;;;;;;;;;;;;;;;;2074857;26;7003;-65
2024/04/17 05:53:51;;;;;;;;;;;;;;;;;;2075362;26;8117;-65
2024/04/17 05:54:49;;;;;;;;;;;;;;;;;;2075415;26;8068;-65
2024/04/17 05:55:46;;;;;;;;;;;;;;;;;;2074986;26;8029;-65
2024/04/17 05:56:44;;;;;;;;;;;;;;;;;;2075326;26;8266;-65
2024/04/17 05:57:41;;;;;;;;;;;;;;;;;;2075190;26;7351;-65
2024/04/17 05:58:39;;;;;;;;;;;;;;;;;;2072974;26;7182;-65
2024/04/17 05:59:36;;;;;;;;;;;;;;;;;;2074861;26;7004;-65
2024/04/17 06:00:34;;;;;;;;;;;;;;;;;;2075785;26;7123;-65
2024/04/17 06:01:31;;;;;;;;;;;;;;;;;;2074817;26;7062;-65
2024/04/17 06:02:29;;;;;;;;;;;;;;;;;;2072387;26;8081;-65
2024/04/17 06:03:26;;;;;;;;;;;;;;;;;;2074949;26;7204;-64
2024/04/17 06:04:24;;;;;;;;;;;;;;;;;;2076135;26;8287;-65
2024/04/17 06:05:22;;;;;;;;;;;;;;;;;;2075394;26;7073;-65
2024/04/17 06:06:19;;;;;;;;;;;;;;;;;;2074828;26;8149;-65
2024/04/17 06:07:17;;;;;;;;;;;;;;;;;;2071922;26;8069;-65
2024/04/17 06:08:14;;;;;;;;;;;;;;;;;;2074246;26;7068;-65
2024/04/17 06:09:11;;;;;;;;;;;;;;;;;;2074987;26;8085;-65
2024/04/17 06:10:09;;;;;;;;;;;;;;;;;;2074674;26;8061;-65
2024/04/17 06:11:07;;;;;;;;;;;;;;;;;;2073372;26;7136;-65
2024/04/17 06:12:05;;;;;;;;;;;;;;;;;;2075305;26;8215;-65
2024/04/17 06:13:02;;;;;;;;;;;;;;;;;;2075015;26;8428;-65
2024/04/17 06:14:00;;;;;;;;;;;;;;;;;;2075095;26;8132;-65
2024/04/17 06:14:57;;;;;;;;;;;;;;;;;;2075390;26;7063;-65
2024/04/17 06:15:55;;;;;;;;;;;;;;;;;;2074489;26;8237;-65
2024/04/17 06:16:52;;;;;;;;;;;;;;;;;;2075387;26;7004;-65
2024/04/17 06:17:50;;;;;;;;;;;;;;;;;;2075047;26;7138;-65
2024/04/17 06:18:48;;;;;;;;;;;;;;;;;;2076073;26;8062;-66
2024/04/17 06:19:45;;;;;;;;;;;;;;;;;;2073458;26;7144;-65
2024/04/17 06:20:43;;;;;;;;;;;;;;;;;;2074860;26;8196;-64
2024/04/17 06:21:40;;;;;;;;;;;;;;;;;;2073937;26;8057;-65
2024/04/17 06:22:38;;;;;;;;;;;;;;;;;;2074906;26;7204;-65
2024/04/17 06:23:36;;;;;;;;;;;;;;;;;;2072382;26;8085;-65
2024/04/17 06:24:33;;;;;;;;;;;;;;;;;;2075371;26;7065;-65
2024/04/17 06:25:31;;;;;;;;;;;;;;;;;;2075707;26;8278;-64
2024/04/17 06:26:28;;;;;;;;;;;;;;;;;;2075253;26;7127;-66
2024/04/17 06:27:26;;;;;;;;;;;;;;;;;;2074841;26;7342;-65
2024/04/17 06:28:23;;;;;;;;;;;;;;;;;;2074214;26;8086;-65
2024/04/17 06:29:21;;;;;;;;;;;;;;;;;;2085841;26;7067;-65
2024/04/17 06:30:19;;;;;;;;;;;;;;;;;;2086835;26;8121;-65
2024/04/17 06:31:16;;;;;;;;;;;;;;;;;;2076529;26;7004;-65
2024/04/17 06:32:14;;;;;;;;;;;;;;;;;;2075038;26;7065;-65
2024/04/17 06:33:11;;;;;;;;;;;;;;;;;;2074493;26;8062;-65
2024/04/17 06:34:09;;;;;;;;;;;;;;;;;;2075384;26;7004;-66
2024/04/17 06:35:06;;;;;;;;;;;;;;;;;;2074814;26;8076;-65
2024/04/17 06:36:05;;;;;;;;;;;;;;;;;;2074232;26;7004;-65
2024/04/17 06:37:03;;;;;;;;;;;;;;;;;;2073798;26;8068;-66
2024/04/17 06:38:06;;;;;;;;;;;;;;;;;;2071955;26;8259;-65
2024/04/17 06:39:04;;;;;;;;;;;;;;;;;;2074545;26;8087;-65
2024/04/17 06:40:01;;;;;;;;;;;;;;;;;;2075136;26;7004;-65
2024/04/17 06:41:00;;;;;;;;;;;;;;;;;;2073938;26;7004;-65